sensor_id;sensor_type;location;lat;lon;timestamp;P1;durP1;ratioP1;P2;durP2;ratioP2
51146;SDS011;37207;53.060;18.726;2022-12-18T00:03:55;62.90;;;24.10;;
51146;SDS011;37207;53.060;18.726;2022-12-18T00:06:24;63.60;;;24.50;;
51146;SDS011;37207;53.060;18.726;2022-12-18T00:11:21;69.00;;;22.60;;
51146;SDS011;37207;53.060;18.726;2022-12-18T00:13:49;62.50;;;21.10;;
51146;SDS011;37207;53.060;18.726;2022-12-18T00:16:18;69.50;;;21.30;;
51146;SDS011;37207;53.060;18.726;2022-12-18T00:18:47;67.00;;;24.30;;
51146;SDS011;37207;53.060;18.726;2022-12-18T00:21:14;79.90;;;25.30;;
51146;SDS011;37207;53.060;18.726;2022-12-18T00:23:42;60.50;;;22.00;;
51146;SDS011;37207;53.060;18.726;2022-12-18T00:26:11;67.20;;;24.80;;
51146;SDS011;37207;53.060;18.726;2022-12-18T00:28:43;54.30;;;20.00;;
51146;SDS011;37207;53.060;18.726;2022-12-18T00:31:12;65.90;;;23.20;;
51146;SDS011;37207;53.060;18.726;2022-12-18T00:33:39;68.80;;;24.50;;
51146;SDS011;37207;53.060;18.726;2022-12-18T00:36:13;58.80;;;21.60;;
51146;SDS011;37207;53.060;18.726;2022-12-18T00:38:44;64.90;;;22.10;;
51146;SDS011;37207;53.060;18.726;2022-12-18T00:41:11;55.10;;;21.70;;
51146;SDS011;37207;53.060;18.726;2022-12-18T00:43:39;57.60;;;22.00;;
51146;SDS011;37207;53.060;18.726;2022-12-18T00:46:06;63.00;;;24.10;;
51146;SDS011;37207;53.060;18.726;2022-12-18T00:48:32;67.40;;;22.80;;
51146;SDS011;37207;53.060;18.726;2022-12-18T00:50:59;67.10;;;24.70;;
51146;SDS011;37207;53.060;18.726;2022-12-18T00:53:25;67.10;;;23.40;;
51146;SDS011;37207;53.060;18.726;2022-12-18T00:55:52;96.40;;;29.70;;
51146;SDS011;37207;53.060;18.726;2022-12-18T00:58:18;127.40;;;34.10;;
51146;SDS011;37207;53.060;18.726;2022-12-18T01:00:45;124.00;;;37.10;;
51146;SDS011;37207;53.060;18.726;2022-12-18T01:03:12;101.80;;;28.20;;
51146;SDS011;37207;53.060;18.726;2022-12-18T01:05:40;115.60;;;32.60;;
51146;SDS011;37207;53.060;18.726;2022-12-18T01:08:07;93.60;;;27.70;;
51146;SDS011;37207;53.060;18.726;2022-12-18T01:10:35;83.80;;;27.00;;
51146;SDS011;37207;53.060;18.726;2022-12-18T01:13:01;67.40;;;25.30;;
51146;SDS011;37207;53.060;18.726;2022-12-18T01:15:28;61.30;;;23.10;;
51146;SDS011;37207;53.060;18.726;2022-12-18T01:17:55;61.60;;;21.60;;
51146;SDS011;37207;53.060;18.726;2022-12-18T01:20:21;66.40;;;23.90;;
51146;SDS011;37207;53.060;18.726;2022-12-18T01:22:48;70.80;;;23.50;;
51146;SDS011;37207;53.060;18.726;2022-12-18T01:25:14;59.10;;;23.20;;
51146;SDS011;37207;53.060;18.726;2022-12-18T01:27:41;67.00;;;23.90;;
51146;SDS011;37207;53.060;18.726;2022-12-18T01:30:07;67.40;;;24.80;;
51146;SDS011;37207;53.060;18.726;2022-12-18T01:32:35;65.00;;;25.30;;
51146;SDS011;37207;53.060;18.726;2022-12-18T01:35:02;56.60;;;23.70;;
51146;SDS011;37207;53.060;18.726;2022-12-18T01:37:29;65.00;;;24.40;;
51146;SDS011;37207;53.060;18.726;2022-12-18T01:39:55;70.80;;;24.80;;
51146;SDS011;37207;53.060;18.726;2022-12-18T01:42:22;62.50;;;25.40;;
51146;SDS011;37207;53.060;18.726;2022-12-18T01:47:32;96.30;;;28.80;;
51146;SDS011;37207;53.060;18.726;2022-12-18T01:50:13;91.70;;;30.40;;
51146;SDS011;37207;53.060;18.726;2022-12-18T01:52:43;90.40;;;31.70;;
51146;SDS011;37207;53.060;18.726;2022-12-18T01:55:13;79.00;;;28.90;;
51146;SDS011;37207;53.060;18.726;2022-12-18T01:57:43;87.80;;;30.90;;
51146;SDS011;37207;53.060;18.726;2022-12-18T02:00:11;92.40;;;32.00;;
51146;SDS011;37207;53.060;18.726;2022-12-18T02:02:41;80.90;;;29.10;;
51146;SDS011;37207;53.060;18.726;2022-12-18T02:05:10;85.20;;;27.50;;
51146;SDS011;37207;53.060;18.726;2022-12-18T02:07:52;82.10;;;27.40;;
51146;SDS011;37207;53.060;18.726;2022-12-18T02:19:03;75.60;;;28.80;;
51146;SDS011;37207;53.060;18.726;2022-12-18T02:24:35;86.40;;;29.70;;
51146;SDS011;37207;53.060;18.726;2022-12-18T02:27:11;91.00;;;31.10;;
51146;SDS011;37207;53.060;18.726;2022-12-18T02:29:41;107.80;;;33.80;;
51146;SDS011;37207;53.060;18.726;2022-12-18T02:32:14;86.30;;;30.30;;
51146;SDS011;37207;53.060;18.726;2022-12-18T02:34:46;95.30;;;31.60;;
51146;SDS011;37207;53.060;18.726;2022-12-18T02:37:17;86.60;;;32.60;;
51146;SDS011;37207;53.060;18.726;2022-12-18T02:39:47;104.90;;;36.70;;
51146;SDS011;37207;53.060;18.726;2022-12-18T02:42:16;102.20;;;37.10;;
51146;SDS011;37207;53.060;18.726;2022-12-18T02:44:47;127.80;;;42.70;;
51146;SDS011;37207;53.060;18.726;2022-12-18T02:47:19;130.30;;;42.20;;
51146;SDS011;37207;53.060;18.726;2022-12-18T02:52:35;124.30;;;40.50;;
51146;SDS011;37207;53.060;18.726;2022-12-18T03:01:08;87.20;;;30.60;;
51146;SDS011;37207;53.060;18.726;2022-12-18T03:03:46;95.10;;;31.50;;
51146;SDS011;37207;53.060;18.726;2022-12-18T03:06:21;80.60;;;29.00;;
51146;SDS011;37207;53.060;18.726;2022-12-18T03:08:54;93.90;;;31.60;;
51146;SDS011;37207;53.060;18.726;2022-12-18T03:11:26;85.10;;;30.70;;
51146;SDS011;37207;53.060;18.726;2022-12-18T03:14:16;102.20;;;33.40;;
51146;SDS011;37207;53.060;18.726;2022-12-18T03:16:47;130.20;;;41.70;;
51146;SDS011;37207;53.060;18.726;2022-12-18T03:19:20;134.50;;;40.40;;
51146;SDS011;37207;53.060;18.726;2022-12-18T03:21:54;120.90;;;39.90;;
51146;SDS011;37207;53.060;18.726;2022-12-18T03:24:24;117.40;;;41.20;;
51146;SDS011;37207;53.060;18.726;2022-12-18T03:26:54;112.30;;;40.50;;
51146;SDS011;37207;53.060;18.726;2022-12-18T03:29:30;119.40;;;41.70;;
51146;SDS011;37207;53.060;18.726;2022-12-18T03:32:03;117.70;;;40.20;;
51146;SDS011;37207;53.060;18.726;2022-12-18T03:34:35;117.70;;;44.20;;
51146;SDS011;37207;53.060;18.726;2022-12-18T03:37:06;135.60;;;46.50;;
51146;SDS011;37207;53.060;18.726;2022-12-18T03:39:34;178.90;;;55.30;;
51146;SDS011;37207;53.060;18.726;2022-12-18T03:47:27;236.40;;;85.50;;
51146;SDS011;37207;53.060;18.726;2022-12-18T03:55:10;174.40;;;66.40;;
51146;SDS011;37207;53.060;18.726;2022-12-18T03:57:39;180.10;;;65.70;;
51146;SDS011;37207;53.060;18.726;2022-12-18T04:00:10;167.40;;;60.60;;
51146;SDS011;37207;53.060;18.726;2022-12-18T04:02:52;179.40;;;62.60;;
51146;SDS011;37207;53.060;18.726;2022-12-18T04:05:24;212.20;;;74.30;;
51146;SDS011;37207;53.060;18.726;2022-12-18T04:07:53;228.10;;;81.20;;
51146;SDS011;37207;53.060;18.726;2022-12-18T04:10:21;225.70;;;80.40;;
51146;SDS011;37207;53.060;18.726;2022-12-18T04:12:48;208.30;;;72.80;;
51146;SDS011;37207;53.060;18.726;2022-12-18T04:15:15;163.50;;;59.90;;
51146;SDS011;37207;53.060;18.726;2022-12-18T04:17:45;149.60;;;52.30;;
51146;SDS011;37207;53.060;18.726;2022-12-18T04:20:15;130.80;;;49.70;;
51146;SDS011;37207;53.060;18.726;2022-12-18T04:22:43;114.90;;;41.60;;
51146;SDS011;37207;53.060;18.726;2022-12-18T04:25:10;96.70;;;37.20;;
51146;SDS011;37207;53.060;18.726;2022-12-18T04:27:43;108.70;;;36.50;;
51146;SDS011;37207;53.060;18.726;2022-12-18T04:30:10;106.50;;;37.20;;
51146;SDS011;37207;53.060;18.726;2022-12-18T04:32:37;130.10;;;41.10;;
51146;SDS011;37207;53.060;18.726;2022-12-18T04:35:04;169.40;;;59.40;;
51146;SDS011;37207;53.060;18.726;2022-12-18T04:37:33;165.80;;;58.10;;
51146;SDS011;37207;53.060;18.726;2022-12-18T04:39:59;172.40;;;59.00;;
51146;SDS011;37207;53.060;18.726;2022-12-18T04:42:32;135.10;;;50.10;;
51146;SDS011;37207;53.060;18.726;2022-12-18T04:44:59;133.80;;;50.20;;
51146;SDS011;37207;53.060;18.726;2022-12-18T04:47:25;118.70;;;44.70;;
51146;SDS011;37207;53.060;18.726;2022-12-18T04:49:52;114.60;;;41.30;;
51146;SDS011;37207;53.060;18.726;2022-12-18T04:52:18;89.40;;;34.30;;
51146;SDS011;37207;53.060;18.726;2022-12-18T04:54:45;82.20;;;27.60;;
51146;SDS011;37207;53.060;18.726;2022-12-18T04:57:11;81.70;;;26.40;;
51146;SDS011;37207;53.060;18.726;2022-12-18T04:59:38;69.30;;;26.70;;
51146;SDS011;37207;53.060;18.726;2022-12-18T05:02:05;59.20;;;25.00;;
51146;SDS011;37207;53.060;18.726;2022-12-18T05:04:31;72.90;;;27.70;;
51146;SDS011;37207;53.060;18.726;2022-12-18T05:06:58;75.60;;;26.80;;
51146;SDS011;37207;53.060;18.726;2022-12-18T05:09:24;57.30;;;23.90;;
51146;SDS011;37207;53.060;18.726;2022-12-18T05:11:51;74.10;;;25.60;;
51146;SDS011;37207;53.060;18.726;2022-12-18T05:14:18;72.80;;;29.30;;
51146;SDS011;37207;53.060;18.726;2022-12-18T05:16:44;63.10;;;23.80;;
51146;SDS011;37207;53.060;18.726;2022-12-18T05:19:11;73.40;;;24.80;;
51146;SDS011;37207;53.060;18.726;2022-12-18T05:21:37;67.30;;;25.80;;
51146;SDS011;37207;53.060;18.726;2022-12-18T05:24:04;70.40;;;27.90;;
51146;SDS011;37207;53.060;18.726;2022-12-18T05:26:31;64.90;;;24.00;;
51146;SDS011;37207;53.060;18.726;2022-12-18T05:28:57;70.40;;;23.90;;
51146;SDS011;37207;53.060;18.726;2022-12-18T05:31:24;70.00;;;24.90;;
51146;SDS011;37207;53.060;18.726;2022-12-18T05:33:50;67.00;;;23.60;;
51146;SDS011;37207;53.060;18.726;2022-12-18T05:36:17;74.40;;;24.90;;
51146;SDS011;37207;53.060;18.726;2022-12-18T05:38:43;64.00;;;25.90;;
51146;SDS011;37207;53.060;18.726;2022-12-18T05:41:10;74.00;;;24.30;;
51146;SDS011;37207;53.060;18.726;2022-12-18T05:43:38;76.10;;;25.30;;
51146;SDS011;37207;53.060;18.726;2022-12-18T05:46:06;66.00;;;23.80;;
51146;SDS011;37207;53.060;18.726;2022-12-18T05:48:34;58.30;;;23.60;;
51146;SDS011;37207;53.060;18.726;2022-12-18T05:51:04;67.20;;;23.00;;
51146;SDS011;37207;53.060;18.726;2022-12-18T05:53:33;61.50;;;21.80;;
51146;SDS011;37207;53.060;18.726;2022-12-18T05:56:01;62.40;;;23.70;;
51146;SDS011;37207;53.060;18.726;2022-12-18T05:58:30;64.10;;;23.00;;
51146;SDS011;37207;53.060;18.726;2022-12-18T06:00:57;61.80;;;23.90;;
51146;SDS011;37207;53.060;18.726;2022-12-18T06:03:24;80.60;;;27.50;;
51146;SDS011;37207;53.060;18.726;2022-12-18T06:05:50;75.10;;;28.60;;
51146;SDS011;37207;53.060;18.726;2022-12-18T06:08:17;72.80;;;28.90;;
51146;SDS011;37207;53.060;18.726;2022-12-18T06:10:49;92.20;;;30.50;;
51146;SDS011;37207;53.060;18.726;2022-12-18T06:13:18;71.40;;;27.30;;
51146;SDS011;37207;53.060;18.726;2022-12-18T06:15:45;60.30;;;25.00;;
51146;SDS011;37207;53.060;18.726;2022-12-18T06:18:12;70.40;;;24.00;;
51146;SDS011;37207;53.060;18.726;2022-12-18T06:20:38;63.30;;;23.40;;
51146;SDS011;37207;53.060;18.726;2022-12-18T06:23:07;74.40;;;26.00;;
51146;SDS011;37207;53.060;18.726;2022-12-18T06:25:36;79.80;;;24.00;;
51146;SDS011;37207;53.060;18.726;2022-12-18T06:28:03;73.80;;;21.90;;
51146;SDS011;37207;53.060;18.726;2022-12-18T06:30:30;72.80;;;24.30;;
51146;SDS011;37207;53.060;18.726;2022-12-18T06:32:56;64.70;;;20.50;;
51146;SDS011;37207;53.060;18.726;2022-12-18T06:35:23;57.20;;;22.40;;
51146;SDS011;37207;53.060;18.726;2022-12-18T06:37:50;62.40;;;21.00;;
51146;SDS011;37207;53.060;18.726;2022-12-18T06:40:17;82.20;;;24.30;;
51146;SDS011;37207;53.060;18.726;2022-12-18T06:42:43;79.60;;;26.10;;
51146;SDS011;37207;53.060;18.726;2022-12-18T06:45:10;68.80;;;26.20;;
51146;SDS011;37207;53.060;18.726;2022-12-18T06:47:37;58.00;;;22.80;;
51146;SDS011;37207;53.060;18.726;2022-12-18T06:50:04;71.30;;;24.20;;
51146;SDS011;37207;53.060;18.726;2022-12-18T06:52:32;69.80;;;24.30;;
51146;SDS011;37207;53.060;18.726;2022-12-18T06:54:59;87.80;;;24.60;;
51146;SDS011;37207;53.060;18.726;2022-12-18T06:57:26;69.50;;;25.20;;
51146;SDS011;37207;53.060;18.726;2022-12-18T06:59:52;108.30;;;30.60;;
51146;SDS011;37207;53.060;18.726;2022-12-18T07:02:19;83.50;;;32.70;;
51146;SDS011;37207;53.060;18.726;2022-12-18T07:04:45;73.60;;;28.50;;
51146;SDS011;37207;53.060;18.726;2022-12-18T07:07:12;75.60;;;26.70;;
51146;SDS011;37207;53.060;18.726;2022-12-18T07:09:39;68.30;;;26.10;;
51146;SDS011;37207;53.060;18.726;2022-12-18T07:12:05;79.60;;;26.70;;
51146;SDS011;37207;53.060;18.726;2022-12-18T07:14:33;107.10;;;35.00;;
51146;SDS011;37207;53.060;18.726;2022-12-18T07:17:00;103.40;;;39.80;;
51146;SDS011;37207;53.060;18.726;2022-12-18T07:19:26;95.80;;;37.00;;
51146;SDS011;37207;53.060;18.726;2022-12-18T07:21:53;83.60;;;33.50;;
51146;SDS011;37207;53.060;18.726;2022-12-18T07:24:19;73.80;;;29.30;;
51146;SDS011;37207;53.060;18.726;2022-12-18T07:26:46;67.40;;;25.90;;
51146;SDS011;37207;53.060;18.726;2022-12-18T07:29:13;76.60;;;27.40;;
51146;SDS011;37207;53.060;18.726;2022-12-18T07:31:40;72.40;;;25.30;;
51146;SDS011;37207;53.060;18.726;2022-12-18T07:34:09;85.90;;;28.60;;
51146;SDS011;37207;53.060;18.726;2022-12-18T07:36:37;89.20;;;29.50;;
51146;SDS011;37207;53.060;18.726;2022-12-18T07:39:04;98.50;;;31.70;;
51146;SDS011;37207;53.060;18.726;2022-12-18T07:41:30;70.10;;;28.50;;
51146;SDS011;37207;53.060;18.726;2022-12-18T07:43:59;81.30;;;28.90;;
51146;SDS011;37207;53.060;18.726;2022-12-18T07:46:26;75.70;;;31.70;;
51146;SDS011;37207;53.060;18.726;2022-12-18T07:48:52;87.20;;;31.70;;
51146;SDS011;37207;53.060;18.726;2022-12-18T07:51:19;74.00;;;30.10;;
51146;SDS011;37207;53.060;18.726;2022-12-18T07:53:46;108.50;;;34.40;;
51146;SDS011;37207;53.060;18.726;2022-12-18T07:56:12;107.50;;;34.30;;
51146;SDS011;37207;53.060;18.726;2022-12-18T07:58:39;107.50;;;36.10;;
51146;SDS011;37207;53.060;18.726;2022-12-18T08:01:07;107.90;;;34.80;;
51146;SDS011;37207;53.060;18.726;2022-12-18T08:03:36;102.20;;;33.90;;
51146;SDS011;37207;53.060;18.726;2022-12-18T08:06:05;96.00;;;30.10;;
51146;SDS011;37207;53.060;18.726;2022-12-18T08:08:33;98.00;;;35.90;;
51146;SDS011;37207;53.060;18.726;2022-12-18T08:11:00;98.00;;;34.40;;
51146;SDS011;37207;53.060;18.726;2022-12-18T08:13:28;107.40;;;39.10;;
51146;SDS011;37207;53.060;18.726;2022-12-18T08:18:29;112.30;;;38.80;;
51146;SDS011;37207;53.060;18.726;2022-12-18T08:20:55;97.30;;;33.10;;
51146;SDS011;37207;53.060;18.726;2022-12-18T08:23:22;101.10;;;34.60;;
51146;SDS011;37207;53.060;18.726;2022-12-18T08:25:49;112.10;;;37.40;;
51146;SDS011;37207;53.060;18.726;2022-12-18T08:28:16;164.20;;;57.90;;
51146;SDS011;37207;53.060;18.726;2022-12-18T08:30:43;110.70;;;37.20;;
51146;SDS011;37207;53.060;18.726;2022-12-18T08:33:09;136.10;;;41.30;;
51146;SDS011;37207;53.060;18.726;2022-12-18T08:35:36;207.80;;;48.80;;
51146;SDS011;37207;53.060;18.726;2022-12-18T08:38:03;166.90;;;45.00;;
51146;SDS011;37207;53.060;18.726;2022-12-18T08:40:30;136.90;;;39.00;;
51146;SDS011;37207;53.060;18.726;2022-12-18T08:42:56;151.80;;;43.60;;
51146;SDS011;37207;53.060;18.726;2022-12-18T08:45:41;171.10;;;49.10;;
51146;SDS011;37207;53.060;18.726;2022-12-18T08:48:08;147.00;;;44.70;;
51146;SDS011;37207;53.060;18.726;2022-12-18T08:50:34;146.60;;;45.50;;
51146;SDS011;37207;53.060;18.726;2022-12-18T08:53:01;179.50;;;54.00;;
51146;SDS011;37207;53.060;18.726;2022-12-18T08:55:28;99.00;;;34.70;;
51146;SDS011;37207;53.060;18.726;2022-12-18T08:57:54;85.10;;;33.00;;
51146;SDS011;37207;53.060;18.726;2022-12-18T09:00:21;99.90;;;36.10;;
51146;SDS011;37207;53.060;18.726;2022-12-18T09:02:48;114.70;;;41.70;;
51146;SDS011;37207;53.060;18.726;2022-12-18T09:05:15;119.60;;;45.30;;
51146;SDS011;37207;53.060;18.726;2022-12-18T09:07:41;142.60;;;54.80;;
51146;SDS011;37207;53.060;18.726;2022-12-18T09:10:08;91.10;;;34.30;;
51146;SDS011;37207;53.060;18.726;2022-12-18T09:12:35;92.20;;;31.80;;
51146;SDS011;37207;53.060;18.726;2022-12-18T09:15:01;111.90;;;39.20;;
51146;SDS011;37207;53.060;18.726;2022-12-18T09:17:28;102.70;;;36.30;;
51146;SDS011;37207;53.060;18.726;2022-12-18T09:19:55;109.60;;;33.60;;
51146;SDS011;37207;53.060;18.726;2022-12-18T09:22:21;95.00;;;33.00;;
51146;SDS011;37207;53.060;18.726;2022-12-18T09:24:48;83.10;;;30.60;;
51146;SDS011;37207;53.060;18.726;2022-12-18T09:27:15;93.00;;;30.90;;
51146;SDS011;37207;53.060;18.726;2022-12-18T09:29:41;90.10;;;30.90;;
51146;SDS011;37207;53.060;18.726;2022-12-18T09:32:08;88.40;;;30.80;;
51146;SDS011;37207;53.060;18.726;2022-12-18T09:34:35;97.50;;;34.40;;
51146;SDS011;37207;53.060;18.726;2022-12-18T09:37:01;95.10;;;29.50;;
51146;SDS011;37207;53.060;18.726;2022-12-18T09:39:28;99.50;;;27.70;;
51146;SDS011;37207;53.060;18.726;2022-12-18T09:41:55;125.20;;;35.80;;
51146;SDS011;37207;53.060;18.726;2022-12-18T09:44:28;122.30;;;34.00;;
51146;SDS011;37207;53.060;18.726;2022-12-18T09:47:03;114.10;;;31.90;;
51146;SDS011;37207;53.060;18.726;2022-12-18T09:49:44;111.30;;;33.10;;
51146;SDS011;37207;53.060;18.726;2022-12-18T09:52:27;79.00;;;25.80;;
51146;SDS011;37207;53.060;18.726;2022-12-18T09:55:23;106.50;;;28.00;;
51146;SDS011;37207;53.060;18.726;2022-12-18T09:57:52;103.30;;;28.50;;
51146;SDS011;37207;53.060;18.726;2022-12-18T10:00:23;95.60;;;28.50;;
51146;SDS011;37207;53.060;18.726;2022-12-18T10:02:51;98.20;;;32.90;;
51146;SDS011;37207;53.060;18.726;2022-12-18T10:05:35;113.90;;;36.10;;
51146;SDS011;37207;53.060;18.726;2022-12-18T10:08:12;116.80;;;34.70;;
51146;SDS011;37207;53.060;18.726;2022-12-18T10:13:24;72.40;;;25.70;;
51146;SDS011;37207;53.060;18.726;2022-12-18T10:19:22;58.80;;;20.10;;
51146;SDS011;37207;53.060;18.726;2022-12-18T10:27:31;82.90;;;25.00;;
51146;SDS011;37207;53.060;18.726;2022-12-18T10:29:58;81.00;;;25.30;;
51146;SDS011;37207;53.060;18.726;2022-12-18T10:32:28;80.40;;;26.90;;
51146;SDS011;37207;53.060;18.726;2022-12-18T10:34:56;85.10;;;24.90;;
51146;SDS011;37207;53.060;18.726;2022-12-18T10:37:25;90.80;;;28.20;;
51146;SDS011;37207;53.060;18.726;2022-12-18T10:40:08;82.60;;;24.30;;
51146;SDS011;37207;53.060;18.726;2022-12-18T10:42:37;95.60;;;27.70;;
51146;SDS011;37207;53.060;18.726;2022-12-18T10:45:12;116.10;;;35.30;;
51146;SDS011;37207;53.060;18.726;2022-12-18T10:47:50;103.00;;;28.60;;
51146;SDS011;37207;53.060;18.726;2022-12-18T10:50:22;109.40;;;29.70;;
51146;SDS011;37207;53.060;18.726;2022-12-18T10:52:58;122.60;;;32.40;;
51146;SDS011;37207;53.060;18.726;2022-12-18T10:55:29;118.10;;;33.80;;
51146;SDS011;37207;53.060;18.726;2022-12-18T11:01:02;144.50;;;39.60;;
51146;SDS011;37207;53.060;18.726;2022-12-18T11:03:41;157.40;;;40.10;;
51146;SDS011;37207;53.060;18.726;2022-12-18T11:06:16;117.80;;;36.70;;
51146;SDS011;37207;53.060;18.726;2022-12-18T11:08:56;117.90;;;32.20;;
51146;SDS011;37207;53.060;18.726;2022-12-18T11:11:27;124.60;;;33.50;;
51146;SDS011;37207;53.060;18.726;2022-12-18T11:16:30;133.20;;;36.30;;
51146;SDS011;37207;53.060;18.726;2022-12-18T11:19:13;159.00;;;47.10;;
51146;SDS011;37207;53.060;18.726;2022-12-18T11:21:47;137.00;;;35.50;;
51146;SDS011;37207;53.060;18.726;2022-12-18T11:24:17;132.80;;;36.90;;
51146;SDS011;37207;53.060;18.726;2022-12-18T11:26:50;113.90;;;30.50;;
51146;SDS011;37207;53.060;18.726;2022-12-18T11:29:17;100.80;;;28.80;;
51146;SDS011;37207;53.060;18.726;2022-12-18T11:31:49;140.10;;;35.20;;
51146;SDS011;37207;53.060;18.726;2022-12-18T11:34:26;95.50;;;30.50;;
51146;SDS011;37207;53.060;18.726;2022-12-18T11:36:57;124.60;;;34.70;;
51146;SDS011;37207;53.060;18.726;2022-12-18T11:42:04;176.10;;;47.40;;
51146;SDS011;37207;53.060;18.726;2022-12-18T11:44:41;166.50;;;45.80;;
51146;SDS011;37207;53.060;18.726;2022-12-18T11:47:23;141.80;;;39.40;;
51146;SDS011;37207;53.060;18.726;2022-12-18T11:49:56;128.60;;;37.50;;
51146;SDS011;37207;53.060;18.726;2022-12-18T11:52:36;171.60;;;44.80;;
51146;SDS011;37207;53.060;18.726;2022-12-18T11:55:53;151.20;;;42.50;;
51146;SDS011;37207;53.060;18.726;2022-12-18T11:57:57;151.80;;;40.70;;
51146;SDS011;37207;53.060;18.726;2022-12-18T12:00:31;143.00;;;39.60;;
51146;SDS011;37207;53.060;18.726;2022-12-18T12:03:19;173.10;;;47.00;;
51146;SDS011;37207;53.060;18.726;2022-12-18T12:08:39;160.30;;;48.40;;
51146;SDS011;37207;53.060;18.726;2022-12-18T12:17:28;125.80;;;38.00;;
51146;SDS011;37207;53.060;18.726;2022-12-18T12:23:17;125.90;;;38.70;;
51146;SDS011;37207;53.060;18.726;2022-12-18T12:26:14;117.60;;;38.80;;
51146;SDS011;37207;53.060;18.726;2022-12-18T12:31:47;123.20;;;39.80;;
51146;SDS011;37207;53.060;18.726;2022-12-18T12:34:17;139.90;;;41.00;;
51146;SDS011;37207;53.060;18.726;2022-12-18T12:36:55;117.90;;;36.30;;
51146;SDS011;37207;53.060;18.726;2022-12-18T12:39:40;90.30;;;29.90;;
51146;SDS011;37207;53.060;18.726;2022-12-18T12:42:31;79.40;;;26.20;;
51146;SDS011;37207;53.060;18.726;2022-12-18T12:45:26;77.80;;;25.10;;
51146;SDS011;37207;53.060;18.726;2022-12-18T12:47:59;92.00;;;32.10;;
51146;SDS011;37207;53.060;18.726;2022-12-18T12:50:28;81.30;;;28.50;;
51146;SDS011;37207;53.060;18.726;2022-12-18T12:53:01;98.50;;;31.40;;
51146;SDS011;37207;53.060;18.726;2022-12-18T12:55:31;82.10;;;30.00;;
51146;SDS011;37207;53.060;18.726;2022-12-18T12:58:10;82.90;;;27.00;;
51146;SDS011;37207;53.060;18.726;2022-12-18T13:01:00;67.10;;;23.20;;
51146;SDS011;37207;53.060;18.726;2022-12-18T13:06:27;67.80;;;23.50;;
51146;SDS011;37207;53.060;18.726;2022-12-18T13:09:01;86.20;;;26.40;;
51146;SDS011;37207;53.060;18.726;2022-12-18T13:14:28;76.70;;;25.40;;
51146;SDS011;37207;53.060;18.726;2022-12-18T13:17:13;100.80;;;30.30;;
51146;SDS011;37207;53.060;18.726;2022-12-18T13:19:40;153.80;;;46.00;;
51146;SDS011;37207;53.060;18.726;2022-12-18T13:22:20;114.90;;;40.90;;
51146;SDS011;37207;53.060;18.726;2022-12-18T13:25:01;87.10;;;31.70;;
51146;SDS011;37207;53.060;18.726;2022-12-18T13:27:45;86.30;;;29.90;;
51146;SDS011;37207;53.060;18.726;2022-12-18T13:38:37;83.70;;;28.50;;
51146;SDS011;37207;53.060;18.726;2022-12-18T13:43:35;81.50;;;27.50;;
51146;SDS011;37207;53.060;18.726;2022-12-18T13:48:34;101.40;;;32.50;;
51146;SDS011;37207;53.060;18.726;2022-12-18T13:51:07;93.70;;;29.90;;
51146;SDS011;37207;53.060;18.726;2022-12-18T13:53:42;92.10;;;29.90;;
51146;SDS011;37207;53.060;18.726;2022-12-18T13:56:27;66.50;;;22.80;;
51146;SDS011;37207;53.060;18.726;2022-12-18T13:59:13;121.30;;;34.90;;
51146;SDS011;37207;53.060;18.726;2022-12-18T14:01:52;120.40;;;35.30;;
51146;SDS011;37207;53.060;18.726;2022-12-18T14:06:52;113.50;;;33.90;;
51146;SDS011;37207;53.060;18.726;2022-12-18T14:09:44;86.00;;;27.70;;
51146;SDS011;37207;53.060;18.726;2022-12-18T14:12:22;106.10;;;29.40;;
51146;SDS011;37207;53.060;18.726;2022-12-18T14:17:55;75.70;;;24.50;;
51146;SDS011;37207;53.060;18.726;2022-12-18T14:20:25;84.50;;;26.50;;
51146;SDS011;37207;53.060;18.726;2022-12-18T14:22:54;80.30;;;25.50;;
51146;SDS011;37207;53.060;18.726;2022-12-18T14:25:23;90.00;;;26.70;;
51146;SDS011;37207;53.060;18.726;2022-12-18T14:27:59;85.20;;;23.60;;
51146;SDS011;37207;53.060;18.726;2022-12-18T14:30:29;99.00;;;27.20;;
51146;SDS011;37207;53.060;18.726;2022-12-18T14:33:01;84.80;;;28.20;;
51146;SDS011;37207;53.060;18.726;2022-12-18T14:35:29;84.70;;;27.20;;
51146;SDS011;37207;53.060;18.726;2022-12-18T14:40:52;80.90;;;21.60;;
51146;SDS011;37207;53.060;18.726;2022-12-18T14:43:23;61.80;;;20.20;;
51146;SDS011;37207;53.060;18.726;2022-12-18T14:45:50;80.10;;;22.50;;
51146;SDS011;37207;53.060;18.726;2022-12-18T14:48:33;86.60;;;26.60;;
51146;SDS011;37207;53.060;18.726;2022-12-18T14:53:45;105.70;;;29.60;;
51146;SDS011;37207;53.060;18.726;2022-12-18T14:58:46;102.70;;;29.20;;
51146;SDS011;37207;53.060;18.726;2022-12-18T15:01:21;105.50;;;29.00;;
51146;SDS011;37207;53.060;18.726;2022-12-18T15:03:51;85.70;;;25.50;;
51146;SDS011;37207;53.060;18.726;2022-12-18T15:06:35;94.90;;;27.50;;
51146;SDS011;37207;53.060;18.726;2022-12-18T15:09:05;101.70;;;31.40;;
51146;SDS011;37207;53.060;18.726;2022-12-18T15:11:48;87.30;;;26.50;;
51146;SDS011;37207;53.060;18.726;2022-12-18T15:14:23;135.20;;;44.20;;
51146;SDS011;37207;53.060;18.726;2022-12-18T15:16:56;101.90;;;29.00;;
51146;SDS011;37207;53.060;18.726;2022-12-18T15:19:32;86.70;;;26.50;;
51146;SDS011;37207;53.060;18.726;2022-12-18T15:22:03;232.00;;;52.80;;
51146;SDS011;37207;53.060;18.726;2022-12-18T15:24:31;221.10;;;51.60;;
51146;SDS011;37207;53.060;18.726;2022-12-18T15:26:59;199.50;;;49.20;;
51146;SDS011;37207;53.060;18.726;2022-12-18T15:29:26;143.70;;;36.40;;
51146;SDS011;37207;53.060;18.726;2022-12-18T15:32:03;168.70;;;41.50;;
51146;SDS011;37207;53.060;18.726;2022-12-18T15:34:32;193.00;;;44.30;;
51146;SDS011;37207;53.060;18.726;2022-12-18T15:37:00;378.50;;;73.80;;
51146;SDS011;37207;53.060;18.726;2022-12-18T15:39:27;138.70;;;35.00;;
51146;SDS011;37207;53.060;18.726;2022-12-18T15:41:53;159.40;;;37.70;;
51146;SDS011;37207;53.060;18.726;2022-12-18T15:44:38;183.80;;;36.90;;
51146;SDS011;37207;53.060;18.726;2022-12-18T15:47:09;259.90;;;49.20;;
51146;SDS011;37207;53.060;18.726;2022-12-18T15:49:38;253.80;;;49.80;;
51146;SDS011;37207;53.060;18.726;2022-12-18T15:52:05;314.90;;;58.20;;
51146;SDS011;37207;53.060;18.726;2022-12-18T15:54:32;236.70;;;59.40;;
51146;SDS011;37207;53.060;18.726;2022-12-18T15:57:17;121.00;;;34.40;;
51146;SDS011;37207;53.060;18.726;2022-12-18T15:59:51;119.70;;;33.60;;
51146;SDS011;37207;53.060;18.726;2022-12-18T16:02:19;118.40;;;29.40;;
51146;SDS011;37207;53.060;18.726;2022-12-18T16:04:49;141.60;;;33.80;;
51146;SDS011;37207;53.060;18.726;2022-12-18T16:07:18;124.60;;;34.30;;
51146;SDS011;37207;53.060;18.726;2022-12-18T16:09:47;150.00;;;37.60;;
51146;SDS011;37207;53.060;18.726;2022-12-18T16:12:15;146.50;;;37.80;;